sensor_id;sensor_type;location;lat;lon;timestamp;temperature;humidity
25937;DHT22;13733;51.178;4.450;2023-09-19T00:01:19;16.10;1.00
25937;DHT22;13733;51.178;4.450;2023-09-19T00:03:46;16.00;1.00
25937;DHT22;13733;51.178;4.450;2023-09-19T00:06:11;16.00;2.40
25937;DHT22;13733;51.178;4.450;2023-09-19T00:08:41;16.10;1.00
25937;DHT22;13733;51.178;4.450;2023-09-19T00:11:10;16.10;1.00
25937;DHT22;13733;51.178;4.450;2023-09-19T00:13:36;16.00;1.00
25937;DHT22;13733;51.178;4.450;2023-09-19T00:16:09;15.90;1.00
25937;DHT22;13733;51.178;4.450;2023-09-19T00:18:36;15.80;1.00
25937;DHT22;13733;51.178;4.450;2023-09-19T00:21:03;15.80;1.00
25937;DHT22;13733;51.178;4.450;2023-09-19T00:23:33;15.90;1.00
25937;DHT22;13733;51.178;4.450;2023-09-19T00:25:59;15.90;1.00
25937;DHT22;13733;51.178;4.450;2023-09-19T00:28:26;16.00;1.00
25937;DHT22;13733;51.178;4.450;2023-09-19T00:30:52;16.00;1.00
25937;DHT22;13733;51.178;4.450;2023-09-19T00:33:23;16.00;1.00
25937;DHT22;13733;51.178;4.450;2023-09-19T00:35:54;16.10;1.00
25937;DHT22;13733;51.178;4.450;2023-09-19T00:38:21;16.00;1.00
25937;DHT22;13733;51.178;4.450;2023-09-19T00:40:52;15.80;1.00
25937;DHT22;13733;51.178;4.450;2023-09-19T00:43:19;15.80;1.00
25937;DHT22;13733;51.178;4.450;2023-09-19T00:45:49;15.70;1.00
25937;DHT22;13733;51.178;4.450;2023-09-19T00:48:17;15.70;1.00
25937;DHT22;13733;51.178;4.450;2023-09-19T00:50:46;15.70;1.00
25937;DHT22;13733;51.178;4.450;2023-09-19T00:53:16;15.80;1.00
25937;DHT22;13733;51.178;4.450;2023-09-19T00:55:45;15.90;1.00
25937;DHT22;13733;51.178;4.450;2023-09-19T00:58:11;15.80;1.00
25937;DHT22;13733;51.178;4.450;2023-09-19T01:00:38;15.80;1.00
25937;DHT22;13733;51.178;4.450;2023-09-19T01:03:05;15.70;1.00
25937;DHT22;13733;51.178;4.450;2023-09-19T01:05:33;15.70;1.00
25937;DHT22;13733;51.178;4.450;2023-09-19T01:07:59;15.70;1.00
25937;DHT22;13733;51.178;4.450;2023-09-19T01:10:26;15.70;1.00
25937;DHT22;13733;51.178;4.450;2023-09-19T01:29:41;15.50;1.00
25937;DHT22;13733;51.178;4.450;2023-09-19T01:32:10;15.40;1.00
25937;DHT22;13733;51.178;4.450;2023-09-19T01:34:55;15.30;1.00
25937;DHT22;13733;51.178;4.450;2023-09-19T01:37:30;15.50;1.00
25937;DHT22;13733;51.178;4.450;2023-09-19T01:40:02;15.50;1.00
25937;DHT22;13733;51.178;4.450;2023-09-19T01:42:45;15.30;1.00
25937;DHT22;13733;51.178;4.450;2023-09-19T01:47:56;15.40;1.00
25937;DHT22;13733;51.178;4.450;2023-09-19T01:50:42;15.40;1.00
25937;DHT22;13733;51.178;4.450;2023-09-19T01:53:35;15.40;1.00
25937;DHT22;13733;51.178;4.450;2023-09-19T01:56:05;15.20;1.00
25937;DHT22;13733;51.178;4.450;2023-09-19T01:58:41;15.40;1.00
25937;DHT22;13733;51.178;4.450;2023-09-19T02:01:12;15.20;1.00
25937;DHT22;13733;51.178;4.450;2023-09-19T02:03:41;15.10;1.00
25937;DHT22;13733;51.178;4.450;2023-09-19T02:06:17;15.10;1.00
25937;DHT22;13733;51.178;4.450;2023-09-19T02:08:44;15.10;1.00
25937;DHT22;13733;51.178;4.450;2023-09-19T02:11:11;15.00;1.00
25937;DHT22;13733;51.178;4.450;2023-09-19T02:13:39;15.20;1.00
25937;DHT22;13733;51.178;4.450;2023-09-19T02:16:06;15.30;1.00
25937;DHT22;13733;51.178;4.450;2023-09-19T02:18:32;15.20;1.00
25937;DHT22;13733;51.178;4.450;2023-09-19T02:21:03;15.10;1.00
25937;DHT22;13733;51.178;4.450;2023-09-19T02:23:30;15.00;1.00
25937;DHT22;13733;51.178;4.450;2023-09-19T02:25:56;15.00;1.00
25937;DHT22;13733;51.178;4.450;2023-09-19T02:28:26;14.90;1.00
25937;DHT22;13733;51.178;4.450;2023-09-19T02:30:59;15.00;1.00
25937;DHT22;13733;51.178;4.450;2023-09-19T02:33:25;15.00;1.00
25937;DHT22;13733;51.178;4.450;2023-09-19T02:35:56;15.10;1.00
25937;DHT22;13733;51.178;4.450;2023-09-19T02:38:25;15.20;1.00
25937;DHT22;13733;51.178;4.450;2023-09-19T02:40:54;15.10;1.00
25937;DHT22;13733;51.178;4.450;2023-09-19T02:43:21;15.10;4.40
25937;DHT22;13733;51.178;4.450;2023-09-19T02:45:48;15.20;7.90
25937;DHT22;13733;51.178;4.450;2023-09-19T02:48:19;15.30;2.40
25937;DHT22;13733;51.178;4.450;2023-09-19T02:50:46;15.30;1.00
25937;DHT22;13733;51.178;4.450;2023-09-19T02:53:12;15.20;5.70
25937;DHT22;13733;51.178;4.450;2023-09-19T02:55:39;15.20;10.90
25937;DHT22;13733;51.178;4.450;2023-09-19T02:58:08;15.10;16.00
25937;DHT22;13733;51.178;4.450;2023-09-19T03:00:36;15.20;10.50
25937;DHT22;13733;51.178;4.450;2023-09-19T03:03:03;15.30;1.00
25937;DHT22;13733;51.178;4.450;2023-09-19T03:05:29;15.40;1.00
25937;DHT22;13733;51.178;4.450;2023-09-19T03:07:57;15.40;1.00
25937;DHT22;13733;51.178;4.450;2023-09-19T03:10:26;15.40;1.00
25937;DHT22;13733;51.178;4.450;2023-09-19T03:12:54;15.40;1.00
25937;DHT22;13733;51.178;4.450;2023-09-19T03:15:20;15.30;1.00
25937;DHT22;13733;51.178;4.450;2023-09-19T03:17:49;15.20;3.90
25937;DHT22;13733;51.178;4.450;2023-09-19T03:20:19;15.40;1.00
25937;DHT22;13733;51.178;4.450;2023-09-19T03:22:48;15.50;1.00
25937;DHT22;13733;51.178;4.450;2023-09-19T03:25:15;15.60;1.00
25937;DHT22;13733;51.178;4.450;2023-09-19T03:27:45;15.80;1.00
25937;DHT22;13733;51.178;4.450;2023-09-19T03:30:12;15.70;1.00
25937;DHT22;13733;51.178;4.450;2023-09-19T03:32:45;15.80;1.00
25937;DHT22;13733;51.178;4.450;2023-09-19T03:35:11;15.80;1.00
25937;DHT22;13733;51.178;4.450;2023-09-19T03:37:41;15.70;1.00
25937;DHT22;13733;51.178;4.450;2023-09-19T03:40:09;15.80;1.00
25937;DHT22;13733;51.178;4.450;2023-09-19T03:42:40;15.60;2.30
25937;DHT22;13733;51.178;4.450;2023-09-19T03:45:08;15.50;7.70
25937;DHT22;13733;51.178;4.450;2023-09-19T03:47:39;15.70;1.00
25937;DHT22;13733;51.178;4.450;2023-09-19T03:50:07;15.50;13.90
25937;DHT22;13733;51.178;4.450;2023-09-19T03:52:34;15.60;17.90
25937;DHT22;13733;51.178;4.450;2023-09-19T03:55:00;15.60;16.20
25937;DHT22;13733;51.178;4.450;2023-09-19T03:57:29;15.60;18.90
25937;DHT22;13733;51.178;4.450;2023-09-19T03:59:54;15.50;25.80
25937;DHT22;13733;51.178;4.450;2023-09-19T04:02:21;15.50;29.90
25937;DHT22;13733;51.178;4.450;2023-09-19T04:04:50;15.50;32.50
25937;DHT22;13733;51.178;4.450;2023-09-19T04:07:16;15.50;31.90
25937;DHT22;13733;51.178;4.450;2023-09-19T04:09:43;15.50;34.40
25937;DHT22;13733;51.178;4.450;2023-09-19T04:12:09;15.40;38.80
25937;DHT22;13733;51.178;4.450;2023-09-19T04:14:34;15.30;41.50
25937;DHT22;13733;51.178;4.450;2023-09-19T04:17:01;15.30;42.70
25937;DHT22;13733;51.178;4.450;2023-09-19T04:19:27;15.20;49.80
25937;DHT22;13733;51.178;4.450;2023-09-19T04:21:52;15.30;45.20
25937;DHT22;13733;51.178;4.450;2023-09-19T04:24:18;15.30;46.40
25937;DHT22;13733;51.178;4.450;2023-09-19T04:26:45;15.20;53.50
25937;DHT22;13733;51.178;4.450;2023-09-19T04:29:11;15.20;53.40
25937;DHT22;13733;51.178;4.450;2023-09-19T04:31:40;15.10;55.20
25937;DHT22;13733;51.178;4.450;2023-09-19T04:34:06;15.20;51.50
25937;DHT22;13733;51.178;4.450;2023-09-19T04:36:33;15.30;47.00
25937;DHT22;13733;51.178;4.450;2023-09-19T04:38:59;15.00;57.00
25937;DHT22;13733;51.178;4.450;2023-09-19T04:41:25;15.00;63.70
25937;DHT22;13733;51.178;4.450;2023-09-19T04:43:50;15.00;63.30
25937;DHT22;13733;51.178;4.450;2023-09-19T04:46:16;15.10;59.20
25937;DHT22;13733;51.178;4.450;2023-09-19T04:48:43;15.10;58.30
25937;DHT22;13733;51.178;4.450;2023-09-19T04:51:09;14.90;64.70
25937;DHT22;13733;51.178;4.450;2023-09-19T04:53:36;14.90;68.80
25937;DHT22;13733;51.178;4.450;2023-09-19T04:56:02;14.80;73.90
25937;DHT22;13733;51.178;4.450;2023-09-19T04:58:29;14.70;75.90
25937;DHT22;13733;51.178;4.450;2023-09-19T05:00:55;14.80;75.00
25937;DHT22;13733;51.178;4.450;2023-09-19T05:03:22;14.90;72.10
25937;DHT22;13733;51.178;4.450;2023-09-19T05:05:48;14.80;74.40
25937;DHT22;13733;51.178;4.450;2023-09-19T05:08:14;14.70;78.00
25937;DHT22;13733;51.178;4.450;2023-09-19T05:10:40;14.80;74.10
25937;DHT22;13733;51.178;4.450;2023-09-19T05:13:06;15.00;64.90
25937;DHT22;13733;51.178;4.450;2023-09-19T05:15:35;14.90;67.80
25937;DHT22;13733;51.178;4.450;2023-09-19T05:18:01;14.90;67.80
25937;DHT22;13733;51.178;4.450;2023-09-19T05:20:27;14.70;77.00
25937;DHT22;13733;51.178;4.450;2023-09-19T05:23:02;14.50;82.60
25937;DHT22;13733;51.178;4.450;2023-09-19T05:25:32;14.60;82.00
25937;DHT22;13733;51.178;4.450;2023-09-19T05:28:01;14.70;81.60
25937;DHT22;13733;51.178;4.450;2023-09-19T05:30:29;14.70;78.80
25937;DHT22;13733;51.178;4.450;2023-09-19T05:32:55;14.60;82.40
25937;DHT22;13733;51.178;4.450;2023-09-19T05:35:22;14.60;81.50
25937;DHT22;13733;51.178;4.450;2023-09-19T05:37:50;14.70;78.20
25937;DHT22;13733;51.178;4.450;2023-09-19T05:40:18;14.70;75.40
25937;DHT22;13733;51.178;4.450;2023-09-19T05:42:43;14.70;76.20
25937;DHT22;13733;51.178;4.450;2023-09-19T05:45:10;14.60;81.00
25937;DHT22;13733;51.178;4.450;2023-09-19T05:47:43;14.80;79.50
25937;DHT22;13733;51.178;4.450;2023-09-19T05:50:11;14.80;75.50
25937;DHT22;13733;51.178;4.450;2023-09-19T05:52:37;14.80;76.90
25937;DHT22;13733;51.178;4.450;2023-09-19T05:55:07;14.70;80.00
25937;DHT22;13733;51.178;4.450;2023-09-19T05:57:37;14.80;78.70
25937;DHT22;13733;51.178;4.450;2023-09-19T06:00:06;14.80;80.60
25937;DHT22;13733;51.178;4.450;2023-09-19T06:02:39;14.80;78.90
25937;DHT22;13733;51.178;4.450;2023-09-19T06:05:06;14.90;74.30
25937;DHT22;13733;51.178;4.450;2023-09-19T06:07:32;15.00;69.70
25937;DHT22;13733;51.178;4.450;2023-09-19T06:10:03;14.90;75.50
25937;DHT22;13733;51.178;4.450;2023-09-19T06:12:32;15.00;73.90
25937;DHT22;13733;51.178;4.450;2023-09-19T06:15:03;15.10;71.00
25937;DHT22;13733;51.178;4.450;2023-09-19T06:17:31;15.30;67.60
25937;DHT22;13733;51.178;4.450;2023-09-19T06:19:56;15.20;67.60
25937;DHT22;13733;51.178;4.450;2023-09-19T06:22:22;15.20;69.50
25937;DHT22;13733;51.178;4.450;2023-09-19T06:24:50;15.20;66.70
25937;DHT22;13733;51.178;4.450;2023-09-19T06:27:15;15.40;59.20
25937;DHT22;13733;51.178;4.450;2023-09-19T06:29:41;15.40;59.70
25937;DHT22;13733;51.178;4.450;2023-09-19T06:32:10;15.20;66.50
25937;DHT22;13733;51.178;4.450;2023-09-19T06:34:36;15.30;63.70
25937;DHT22;13733;51.178;4.450;2023-09-19T06:37:05;15.40;57.40
25937;DHT22;13733;51.178;4.450;2023-09-19T06:39:31;15.30;59.20
25937;DHT22;13733;51.178;4.450;2023-09-19T06:41:58;15.40;58.90
25937;DHT22;13733;51.178;4.450;2023-09-19T06:44:25;15.50;54.30
25937;DHT22;13733;51.178;4.450;2023-09-19T06:46:51;15.70;46.20
25937;DHT22;13733;51.178;4.450;2023-09-19T06:49:18;15.60;49.30
25937;DHT22;13733;51.178;4.450;2023-09-19T06:51:43;15.70;50.70
25937;DHT22;13733;51.178;4.450;2023-09-19T06:54:10;15.70;46.80
25937;DHT22;13733;51.178;4.450;2023-09-19T06:56:36;15.80;46.70
25937;DHT22;13733;51.178;4.450;2023-09-19T06:59:01;15.80;45.90
25937;DHT22;13733;51.178;4.450;2023-09-19T07:01:28;16.00;39.50
25937;DHT22;13733;51.178;4.450;2023-09-19T07:03:54;15.90;40.70
25937;DHT22;13733;51.178;4.450;2023-09-19T07:06:20;15.90;44.10
25937;DHT22;13733;51.178;4.450;2023-09-19T07:08:46;15.90;43.70
25937;DHT22;13733;51.178;4.450;2023-09-19T07:11:11;16.10;36.00
25937;DHT22;13733;51.178;4.450;2023-09-19T07:13:41;16.10;36.70
25937;DHT22;13733;51.178;4.450;2023-09-19T07:16:06;16.00;41.30
25937;DHT22;13733;51.178;4.450;2023-09-19T07:18:35;16.10;38.20
25937;DHT22;13733;51.178;4.450;2023-09-19T07:21:02;16.20;32.10
25937;DHT22;13733;51.178;4.450;2023-09-19T07:23:30;16.30;30.30
25937;DHT22;13733;51.178;4.450;2023-09-19T07:26:01;16.20;31.00
25937;DHT22;13733;51.178;4.450;2023-09-19T07:28:27;16.10;40.60
25937;DHT22;13733;51.178;4.450;2023-09-19T07:30:53;16.10;41.00
25937;DHT22;13733;51.178;4.450;2023-09-19T07:33:20;16.30;35.20
25937;DHT22;13733;51.178;4.450;2023-09-19T07:35:48;16.40;28.90
25937;DHT22;13733;51.178;4.450;2023-09-19T07:38:14;16.40;28.90
25937;DHT22;13733;51.178;4.450;2023-09-19T07:40:40;16.40;25.20
25937;DHT22;13733;51.178;4.450;2023-09-19T07:43:06;16.50;22.80
25937;DHT22;13733;51.178;4.450;2023-09-19T07:45:32;16.40;19.30
25937;DHT22;13733;51.178;4.450;2023-09-19T07:47:58;16.40;28.20
25937;DHT22;13733;51.178;4.450;2023-09-19T07:50:30;16.60;18.60
25937;DHT22;13733;51.178;4.450;2023-09-19T07:52:55;16.70;13.40
25937;DHT22;13733;51.178;4.450;2023-09-19T07:55:22;16.80;11.80
25937;DHT22;13733;51.178;4.450;2023-09-19T07:57:51;16.80;4.10
25937;DHT22;13733;51.178;4.450;2023-09-19T08:00:17;16.90;1.00
25937;DHT22;13733;51.178;4.450;2023-09-19T08:02:43;16.90;1.00
25937;DHT22;13733;51.178;4.450;2023-09-19T08:05:10;16.70;10.40
25937;DHT22;13733;51.178;4.450;2023-09-19T08:07:38;17.00;6.70
25937;DHT22;13733;51.178;4.450;2023-09-19T08:10:08;16.90;1.40
25937;DHT22;13733;51.178;4.450;2023-09-19T08:12:39;16.90;1.00
25937;DHT22;13733;51.178;4.450;2023-09-19T08:15:19;17.00;4.80
25937;DHT22;13733;51.178;4.450;2023-09-19T08:17:46;16.90;1.00
25937;DHT22;13733;51.178;4.450;2023-09-19T08:20:12;17.10;1.00
25937;DHT22;13733;51.178;4.450;2023-09-19T08:22:52;17.10;1.00
25937;DHT22;13733;51.178;4.450;2023-09-19T08:25:22;17.30;1.00
25937;DHT22;13733;51.178;4.450;2023-09-19T08:27:49;17.40;1.00
25937;DHT22;13733;51.178;4.450;2023-09-19T08:30:21;17.40;1.00
25937;DHT22;13733;51.178;4.450;2023-09-19T08:32:50;17.60;1.00
25937;DHT22;13733;51.178;4.450;2023-09-19T08:35:16;17.60;1.00
25937;DHT22;13733;51.178;4.450;2023-09-19T08:37:42;17.70;1.00
25937;DHT22;13733;51.178;4.450;2023-09-19T08:40:11;17.90;1.00
25937;DHT22;13733;51.178;4.450;2023-09-19T08:42:48;18.10;1.00
25937;DHT22;13733;51.178;4.450;2023-09-19T08:45:19;18.00;1.00
25937;DHT22;13733;51.178;4.450;2023-09-19T08:48:04;18.00;1.00
25937;DHT22;13733;51.178;4.450;2023-09-19T08:50:36;18.00;1.00
25937;DHT22;13733;51.178;4.450;2023-09-19T08:53:10;18.10;1.00
25937;DHT22;13733;51.178;4.450;2023-09-19T08:55:37;18.40;1.00
25937;DHT22;13733;51.178;4.450;2023-09-19T08:58:12;18.60;1.00
25937;DHT22;13733;51.178;4.450;2023-09-19T09:00:39;18.30;1.00
25937;DHT22;13733;51.178;4.450;2023-09-19T09:03:09;18.50;1.00
25937;DHT22;13733;51.178;4.450;2023-09-19T09:05:36;18.60;1.00
25937;DHT22;13733;51.178;4.450;2023-09-19T09:08:06;18.70;1.00
25937;DHT22;13733;51.178;4.450;2023-09-19T09:10:33;18.70;1.00
25937;DHT22;13733;51.178;4.450;2023-09-19T09:12:59;18.70;99.90
25937;DHT22;13733;51.178;4.450;2023-09-19T09:15:25;18.50;1.00
25937;DHT22;13733;51.178;4.450;2023-09-19T09:17:52;18.70;1.00
25937;DHT22;13733;51.178;4.450;2023-09-19T09:20:22;18.80;1.00
25937;DHT22;13733;51.178;4.450;2023-09-19T09:22:52;18.80;1.00
25937;DHT22;13733;51.178;4.450;2023-09-19T09:25:19;18.90;1.00
25937;DHT22;13733;51.178;4.450;2023-09-19T09:27:58;19.00;99.90
25937;DHT22;13733;51.178;4.450;2023-09-19T09:30:35;19.00;99.90
25937;DHT22;13733;51.178;4.450;2023-09-19T09:33:12;18.80;99.90
25937;DHT22;13733;51.178;4.450;2023-09-19T09:35:49;19.00;99.90
25937;DHT22;13733;51.178;4.450;2023-09-19T09:38:27;19.10;99.90
25937;DHT22;13733;51.178;4.450;2023-09-19T09:40:54;19.20;99.90
25937;DHT22;13733;51.178;4.450;2023-09-19T09:43:37;19.20;99.90
25937;DHT22;13733;51.178;4.450;2023-09-19T09:46:10;19.10;99.90
25937;DHT22;13733;51.178;4.450;2023-09-19T09:49:04;19.00;99.90
25937;DHT22;13733;51.178;4.450;2023-09-19T09:52:05;19.00;96.80
25937;DHT22;13733;51.178;4.450;2023-09-19T09:55:01;19.20;43.80
25937;DHT22;13733;51.178;4.450;2023-09-19T09:57:30;19.10;99.90
25937;DHT22;13733;51.178;4.450;2023-09-19T09:59:59;19.40;99.90
25937;DHT22;13733;51.178;4.450;2023-09-19T10:02:41;19.40;1.00
25937;DHT22;13733;51.178;4.450;2023-09-19T10:05:15;19.50;1.00
25937;DHT22;13733;51.178;4.450;2023-09-19T10:07:53;19.60;1.00
25937;DHT22;13733;51.178;4.450;2023-09-19T10:10:36;19.40;99.90
25937;DHT22;13733;51.178;4.450;2023-09-19T10:13:12;19.60;99.90
25937;DHT22;13733;51.178;4.450;2023-09-19T10:15:39;19.70;99.90
25937;DHT22;13733;51.178;4.450;2023-09-19T10:18:10;19.80;99.90
25937;DHT22;13733;51.178;4.450;2023-09-19T10:20:40;19.70;99.90
25937;DHT22;13733;51.178;4.450;2023-09-19T10:23:10;19.60;11.90
25937;DHT22;13733;51.178;4.450;2023-09-19T10:25:43;19.80;9.60
25937;DHT22;13733;51.178;4.450;2023-09-19T10:28:13;19.90;1.00
25937;DHT22;13733;51.178;4.450;2023-09-19T10:30:45;19.90;1.00
25937;DHT22;13733;51.178;4.450;2023-09-19T10:33:17;20.10;1.00
25937;DHT22;13733;51.178;4.450;2023-09-19T10:35:48;20.20;1.00
25937;DHT22;13733;51.178;4.450;2023-09-19T10:38:18;20.60;1.00
25937;DHT22;13733;51.178;4.450;2023-09-19T10:40:52;20.80;99.90
25937;DHT22;13733;51.178;4.450;2023-09-19T10:43:20;21.10;99.90
25937;DHT22;13733;51.178;4.450;2023-09-19T10:45:48;21.20;1.00
25937;DHT22;13733;51.178;4.450;2023-09-19T10:48:19;21.60;1.00
25937;DHT22;13733;51.178;4.450;2023-09-19T10:53:15;21.80;1.00
25937;DHT22;13733;51.178;4.450;2023-09-19T10:55:52;22.00;99.90
25937;DHT22;13733;51.178;4.450;2023-09-19T10:58:31;22.50;99.90
25937;DHT22;13733;51.178;4.450;2023-09-19T11:01:00;22.20;95.80
25937;DHT22;13733;51.178;4.450;2023-09-19T11:03:37;22.10;99.90
25937;DHT22;13733;51.178;4.450;2023-09-19T11:06:14;21.90;9.50
25937;DHT22;13733;51.178;4.450;2023-09-19T11:11:45;21.70;99.90
25937;DHT22;13733;51.178;4.450;2023-09-19T11:30:43;22.70;1.00
25937;DHT22;13733;51.178;4.450;2023-09-19T11:36:06;23.60;99.90
25937;DHT22;13733;51.178;4.450;2023-09-19T11:46:53;23.70;1.00
25937;DHT22;13733;51.178;4.450;2023-09-19T11:49:26;23.10;99.90
25937;DHT22;13733;51.178;4.450;2023-09-19T11:51:56;23.30;99.90
25937;DHT22;13733;51.178;4.450;2023-09-19T11:54:23;23.00;99.90
25937;DHT22;13733;51.178;4.450;2023-09-19T11:56:54;22.60;1.00
25937;DHT22;13733;51.178;4.450;2023-09-19T11:59:20;22.00;30.60
25937;DHT22;13733;51.178;4.450;2023-09-19T12:02:06;22.10;1.00
25937;DHT22;13733;51.178;4.450;2023-09-19T12:04:39;22.00;3.00
25937;DHT22;13733;51.178;4.450;2023-09-19T12:07:07;21.70;99.90
25937;DHT22;13733;51.178;4.450;2023-09-19T12:09:39;21.50;1.00
25937;DHT22;13733;51.178;4.450;2023-09-19T12:12:06;21.40;1.00
25937;DHT22;13733;51.178;4.450;2023-09-19T12:14:32;21.70;99.90
25937;DHT22;13733;51.178;4.450;2023-09-19T12:16:59;21.70;99.90
25937;DHT22;13733;51.178;4.450;2023-09-19T12:19:27;21.70;99.90
25937;DHT22;13733;51.178;4.450;2023-09-19T12:21:55;21.80;99.90
25937;DHT22;13733;51.178;4.450;2023-09-19T12:24:24;22.60;99.90
25937;DHT22;13733;51.178;4.450;2023-09-19T12:26:52;23.50;1.00
25937;DHT22;13733;51.178;4.450;2023-09-19T12:29:22;23.70;98.90
25937;DHT22;13733;51.178;4.450;2023-09-19T12:31:53;23.80;1.00
25937;DHT22;13733;51.178;4.450;2023-09-19T12:34:32;23.70;1.00
25937;DHT22;13733;51.178;4.450;2023-09-19T12:37:08;23.00;99.90
25937;DHT22;13733;51.178;4.450;2023-09-19T12:39:42;22.60;99.90
25937;DHT22;13733;51.178;4.450;2023-09-19T12:42:11;22.30;99.90
25937;DHT22;13733;51.178;4.450;2023-09-19T12:44:48;21.70;99.90
25937;DHT22;13733;51.178;4.450;2023-09-19T12:47:18;21.60;68.20
25937;DHT22;13733;51.178;4.450;2023-09-19T12:50:14;21.70;14.20
25937;DHT22;13733;51.178;4.450;2023-09-19T12:52:55;21.70;99.90
25937;DHT22;13733;51.178;4.450;2023-09-19T12:55:31;21.90;1.00
25937;DHT22;13733;51.178;4.450;2023-09-19T12:58:12;21.80;99.90
25937;DHT22;13733;51.178;4.450;2023-09-19T13:00:41;21.80;8.80
25937;DHT22;13733;51.178;4.450;2023-09-19T13:03:26;21.80;99.90
25937;DHT22;13733;51.178;4.450;2023-09-19T13:05:57;22.00;87.70
25937;DHT22;13733;51.178;4.450;2023-09-19T13:08:33;21.70;99.90
25937;DHT22;13733;51.178;4.450;2023-09-19T13:11:16;21.80;99.90
25937;DHT22;13733;51.178;4.450;2023-09-19T13:16:15;21.40;1.00
25937;DHT22;13733;51.178;4.450;2023-09-19T13:18:53;21.30;1.00
25937;DHT22;13733;51.178;4.450;2023-09-19T13:21:39;21.40;3.20
25937;DHT22;13733;51.178;4.450;2023-09-19T13:24:20;21.30;27.10
25937;DHT22;13733;51.178;4.450;2023-09-19T13:26:46;21.60;1.00
25937;DHT22;13733;51.178;4.450;2023-09-19T13:29:12;21.70;1.00
25937;DHT22;13733;51.178;4.450;2023-09-19T13:31:39;21.50;1.00
25937;DHT22;13733;51.178;4.450;2023-09-19T13:34:07;21.70;1.00
25937;DHT22;13733;51.178;4.450;2023-09-19T13:36:33;22.00;99.90
25937;DHT22;13733;51.178;4.450;2023-09-19T13:38:59;22.10;1.00
25937;DHT22;13733;51.178;4.450;2023-09-19T13:41:25;22.20;1.00
25937;DHT22;13733;51.178;4.450;2023-09-19T13:43:51;22.10;1.00
25937;DHT22;13733;51.178;4.450;2023-09-19T13:46:18;21.90;10.00
25937;DHT22;13733;51.178;4.450;2023-09-19T13:48:51;21.90;1.00
25937;DHT22;13733;51.178;4.450;2023-09-19T13:51:20;22.00;1.00
25937;DHT22;13733;51.178;4.450;2023-09-19T13:53:48;22.50;99.90
25937;DHT22;13733;51.178;4.450;2023-09-19T13:56:16;22.90;1.00
25937;DHT22;13733;51.178;4.450;2023-09-19T13:58:42;23.60;21.40
25937;DHT22;13733;51.178;4.450;2023-09-19T14:01:08;24.10;1.00
25937;DHT22;13733;51.178;4.450;2023-09-19T14:03:41;23.50;99.90
25937;DHT22;13733;51.178;4.450;2023-09-19T14:06:15;22.90;99.90
25937;DHT22;13733;51.178;4.450;2023-09-19T14:08:42;22.90;99.90
25937;DHT22;13733;51.178;4.450;2023-09-19T14:11:09;23.40;99.90
25937;DHT22;13733;51.178;4.450;2023-09-19T14:13:34;23.30;99.90
25937;DHT22;13733;51.178;4.450;2023-09-19T14:16:06;23.50;60.60
25937;DHT22;13733;51.178;4.450;2023-09-19T14:18:34;24.50;99.90
25937;DHT22;13733;51.178;4.450;2023-09-19T14:21:04;25.60;1.00
25937;DHT22;13733;51.178;4.450;2023-09-19T14:23:37;27.00;99.90
25937;DHT22;13733;51.178;4.450;2023-09-19T14:26:03;27.00;99.90
25937;DHT22;13733;51.178;4.450;2023-09-19T14:28:32;26.80;30.00
25937;DHT22;13733;51.178;4.450;2023-09-19T14:31:09;25.70;99.90
25937;DHT22;13733;51.178;4.450;2023-09-19T14:33:36;24.70;99.90
25937;DHT22;13733;51.178;4.450;2023-09-19T14:36:07;23.90;1.00
25937;DHT22;13733;51.178;4.450;2023-09-19T14:38:34;23.40;99.90
25937;DHT22;13733;51.178;4.450;2023-09-19T14:41:05;23.00;26.80
25937;DHT22;13733;51.178;4.450;2023-09-19T14:43:31;23.00;99.90
25937;DHT22;13733;51.178;4.450;2023-09-19T14:46:07;22.70;1.00
25937;DHT22;13733;51.178;4.450;2023-09-19T14:48:35;22.20;99.90
25937;DHT22;13733;51.178;4.450;2023-09-19T14:51:05;22.30;1.00
25937;DHT22;13733;51.178;4.450;2023-09-19T14:53:31;22.20;1.00
25937;DHT22;13733;51.178;4.450;2023-09-19T14:56:00;22.10;99.90
25937;DHT22;13733;51.178;4.450;2023-09-19T14:58:26;22.00;1.00
25937;DHT22;13733;51.178;4.450;2023-09-19T15:01:06;22.00;99.90
25937;DHT22;13733;51.178;4.450;2023-09-19T15:03:33;21.60;99.90
25937;DHT22;13733;51.178;4.450;2023-09-19T15:06:03;21.40;99.90
25937;DHT22;13733;51.178;4.450;2023-09-19T15:08:36;21.10;1.00
25937;DHT22;13733;51.178;4.450;2023-09-19T15:11:04;21.00;99.90
25937;DHT22;13733;51.178;4.450;2023-09-19T15:13:35;20.80;1.00
25937;DHT22;13733;51.178;4.450;2023-09-19T15:16:02;20.70;99.90
25937;DHT22;13733;51.178;4.450;2023-09-19T15:18:28;20.80;99.90
25937;DHT22;13733;51.178;4.450;2023-09-19T15:20:57;20.80;80.70
25937;DHT22;13733;51.178;4.450;2023-09-19T15:23:25;20.80;99.90
25937;DHT22;13733;51.178;4.450;2023-09-19T15:25:51;20.80;32.80
25937;DHT22;13733;51.178;4.450;2023-09-19T15:28:19;20.60;99.90
25937;DHT22;13733;51.178;4.450;2023-09-19T15:30:49;20.60;99.90
25937;DHT22;13733;51.178;4.450;2023-09-19T15:33:15;20.60;99.90
25937;DHT22;13733;51.178;4.450;2023-09-19T15:35:41;20.70;99.90
25937;DHT22;13733;51.178;4.450;2023-09-19T15:38:07;20.70;99.90
25937;DHT22;13733;51.178;4.450;2023-09-19T15:40:33;20.70;1.00
25937;DHT22;13733;51.178;4.450;2023-09-19T15:42:59;21.00;99.90
25937;DHT22;13733;51.178;4.450;2023-09-19T15:45:26;21.20;1.00
25937;DHT22;13733;51.178;4.450;2023-09-19T15:47:52;21.10;1.00
25937;DHT22;13733;51.178;4.450;2023-09-19T15:50:18;21.00;99.90
25937;DHT22;13733;51.178;4.450;2023-09-19T15:52:44;20.80;99.90
25937;DHT22;13733;51.178;4.450;2023-09-19T15:55:12;20.90;99.90
25937;DHT22;13733;51.178;4.450;2023-09-19T15:57:39;20.90;99.90
25937;DHT22;13733;51.178;4.450;2023-09-19T16:00:07;21.00;99.90
25937;DHT22;13733;51.178;4.450;2023-09-19T16:02:38;21.00;99.90
25937;DHT22;13733;51.178;4.450;2023-09-19T16:05:04;20.80;1.00
25937;DHT22;13733;51.178;4.450;2023-09-19T16:07:33;20.70;1.00
25937;DHT22;13733;51.178;4.450;2023-09-19T16:10:00;20.70;1.00
25937;DHT22;13733;51.178;4.450;2023-09-19T16:12:26;20.50;1.00
25937;DHT22;13733;51.178;4.450;2023-09-19T16:14:52;20.50;79.80
25937;DHT22;13733;51.178;4.450;2023-09-19T16:17:18;20.50;71.10
25937;DHT22;13733;51.178;4.450;2023-09-19T16:19:43;20.50;67.40
25937;DHT22;13733;51.178;4.450;2023-09-19T16:22:10;20.50;99.90
25937;DHT22;13733;51.178;4.450;2023-09-19T16:24:36;20.40;99.90
25937;DHT22;13733;51.178;4.450;2023-09-19T16:27:01;20.40;99.90
25937;DHT22;13733;51.178;4.450;2023-09-19T16:29:28;20.40;99.90
25937;DHT22;13733;51.178;4.450;2023-09-19T16:31:54;20.40;99.90
25937;DHT22;13733;51.178;4.450;2023-09-19T16:34:20;20.40;99.90
25937;DHT22;13733;51.178;4.450;2023-09-19T16:36:46;20.30;99.90
25937;DHT22;13733;51.178;4.450;2023-09-19T16:39:12;20.40;99.90
25937;DHT22;13733;51.178;4.450;2023-09-19T16:41:38;20.40;99.90
25937;DHT22;13733;51.178;4.450;2023-09-19T16:44:04;20.40;99.90
25937;DHT22;13733;51.178;4.450;2023-09-19T16:46:33;20.20;99.90